SKW3878 KIAD-KDTW
Flight info
| Callsign | SKW3878 |
|---|---|
| Flight time | 1h 7m |
| Altitude | 30000 |
| Route | MCRAY2 MCRAY Q178 KOZAR BONZZ2 |
| Aircraft | CRJ9/M-SDFGIRWY/S |
Departure
| Time | 2026-05-04 16:26 |
|---|---|
| Airport | Washington Dulles International Airport (KIAD) |
Arrival
| Time | 2026-05-04 17:34 |
|---|---|
| Airport | Detroit Metropolitan Wayne County Airport (KDTW) |
| Time | Latitude | Longitude | Altitude | Speed | Heading |
|---|---|---|---|---|---|
| 2026-05-04 16:14 | 38.94816 | -77.45385 | 303 ft | 0 kts | 15° |
| 2026-05-04 16:17 | 38.94794 | -77.45393 | 302 ft | 4 kts | 15° |
| 2026-05-04 16:18 | 38.94732 | -77.45397 | 299 ft | 4 kts | 287° |
| 2026-05-04 16:18 | 38.94731 | -77.45365 | 299 ft | 4 kts | 270° |
| 2026-05-04 16:19 | 38.94731 | -77.45355 | 300 ft | 0 kts | 270° |
| 2026-05-04 16:20 | 38.94731 | -77.45388 | 301 ft | 5 kts | 270° |
| 2026-05-04 16:20 | 38.94732 | -77.45483 | 299 ft | 7 kts | 270° |
| 2026-05-04 16:21 | 38.94656 | -77.45609 | 301 ft | 9 kts | 182° |
| 2026-05-04 16:22 | 38.94512 | -77.45611 | 300 ft | 11 kts | 181° |
| 2026-05-04 16:22 | 38.94247 | -77.45611 | 301 ft | 13 kts | 179° |
| 2026-05-04 16:23 | 38.93975 | -77.45615 | 301 ft | 13 kts | 181° |
| 2026-05-04 16:24 | 38.93589 | -77.45502 | 298 ft | 15 kts | 192° |
| 2026-05-04 16:25 | 38.93402 | -77.45589 | 297 ft | 15 kts | 219° |
| 2026-05-04 16:26 | 38.93985 | -77.47737 | 301 ft | 151 kts | 291° |
| 2026-05-04 16:26 | 38.95798 | -77.51130 | 1924 ft | 159 kts | 311° |
| 2026-05-04 16:27 | 38.97447 | -77.53379 | 3367 ft | 170 kts | 310° |
| 2026-05-04 16:28 | 39.01153 | -77.55635 | 4957 ft | 236 kts | 338° |
| 2026-05-04 16:28 | 39.06016 | -77.58305 | 7119 ft | 262 kts | 332° |
| 2026-05-04 16:29 | 39.12753 | -77.62276 | 10073 ft | 285 kts | 332° |
| 2026-05-04 16:30 | 39.18579 | -77.65690 | 11615 ft | 318 kts | 332° |
| 2026-05-04 16:31 | 39.22642 | -77.68081 | 13019 ft | 325 kts | 332° |
| 2026-05-04 16:31 | 39.28891 | -77.71763 | 15060 ft | 333 kts | 332° |
| 2026-05-04 16:32 | 39.35287 | -77.75522 | 16937 ft | 341 kts | 333° |
| 2026-05-04 16:33 | 39.39635 | -77.78072 | 18159 ft | 346 kts | 333° |
| 2026-05-04 16:33 | 39.44063 | -77.80608 | 19183 ft | 350 kts | 334° |
| 2026-05-04 16:34 | 39.48572 | -77.83104 | 20182 ft | 354 kts | 334° |
| 2026-05-04 16:34 | 39.50839 | -77.84364 | 20653 ft | 356 kts | 333° |
| 2026-05-04 16:35 | 39.55578 | -77.91456 | 21987 ft | 356 kts | 297° |
| 2026-05-04 16:35 | 39.58292 | -78.00497 | 23283 ft | 362 kts | 291° |
| 2026-05-04 16:36 | 39.59167 | -78.03564 | 23663 ft | 363 kts | 292° |
| 2026-05-04 16:36 | 39.61028 | -78.09687 | 24320 ft | 366 kts | 292° |
| 2026-05-04 16:37 | 39.62897 | -78.15816 | 24944 ft | 369 kts | 292° |
| 2026-05-04 16:37 | 39.63841 | -78.18921 | 25255 ft | 371 kts | 292° |
| 2026-05-04 16:37 | 39.65736 | -78.25152 | 26031 ft | 369 kts | 292° |
| 2026-05-04 16:38 | 39.67613 | -78.31342 | 26784 ft | 367 kts | 292° |
| 2026-05-04 16:39 | 39.70391 | -78.40525 | 27878 ft | 364 kts | 292° |
| 2026-05-04 16:39 | 39.72244 | -78.46679 | 28567 ft | 363 kts | 292° |
| 2026-05-04 16:40 | 39.74076 | -78.52763 | 29238 ft | 360 kts | 292° |
| 2026-05-04 16:40 | 39.75888 | -78.58807 | 29828 ft | 359 kts | 292° |
| 2026-05-04 16:41 | 39.77724 | -78.64933 | 29970 ft | 369 kts | 291° |
| 2026-05-04 16:41 | 39.80574 | -78.74474 | 29997 ft | 385 kts | 291° |
| 2026-05-04 16:43 | 39.85411 | -78.90759 | 29975 ft | 386 kts | 291° |
| 2026-05-04 16:43 | 39.88294 | -79.00505 | 29971 ft | 387 kts | 291° |
| 2026-05-04 16:45 | 39.94068 | -79.20137 | 29963 ft | 387 kts | 291° |
| 2026-05-04 16:46 | 39.98858 | -79.36543 | 29946 ft | 387 kts | 291° |
| 2026-05-04 16:47 | 40.04021 | -79.48805 | 29942 ft | 388 kts | 304° |
| 2026-05-04 16:48 | 40.10119 | -79.60421 | 29947 ft | 388 kts | 303° |
| 2026-05-04 16:49 | 40.16114 | -79.72149 | 29943 ft | 388 kts | 303° |
| 2026-05-04 16:50 | 40.22095 | -79.83889 | 29915 ft | 387 kts | 302° |
| 2026-05-04 16:51 | 40.26559 | -79.92686 | 29914 ft | 387 kts | 302° |
| 2026-05-04 16:52 | 40.32507 | -80.04425 | 29924 ft | 387 kts | 302° |
| 2026-05-04 16:53 | 40.36928 | -80.13206 | 29900 ft | 387 kts | 302° |
| 2026-05-04 16:54 | 40.42847 | -80.24971 | 29908 ft | 386 kts | 302° |
| 2026-05-04 16:55 | 40.51679 | -80.42639 | 29909 ft | 386 kts | 302° |
| 2026-05-04 16:56 | 40.59028 | -80.57378 | 29916 ft | 385 kts | 301° |
| 2026-05-04 16:57 | 40.62762 | -80.66715 | 29909 ft | 384 kts | 295° |
| 2026-05-04 16:58 | 40.67569 | -80.79292 | 29904 ft | 384 kts | 296° |
| 2026-05-04 17:00 | 40.72958 | -80.93212 | 29900 ft | 384 kts | 296° |
| 2026-05-04 17:01 | 40.79005 | -81.08918 | 29880 ft | 384 kts | 296° |
| 2026-05-04 17:02 | 40.83822 | -81.21482 | 29865 ft | 383 kts | 296° |
| 2026-05-04 17:03 | 40.87421 | -81.30913 | 29855 ft | 383 kts | 296° |
| 2026-05-04 17:03 | 40.90993 | -81.40304 | 29843 ft | 382 kts | 296° |
| 2026-05-04 17:04 | 40.95754 | -81.52859 | 29850 ft | 381 kts | 296° |
| 2026-05-04 17:05 | 41.00491 | -81.65406 | 29836 ft | 381 kts | 296° |
| 2026-05-04 17:06 | 41.04026 | -81.74803 | 29841 ft | 380 kts | 296° |
| 2026-05-04 17:07 | 41.06146 | -81.80455 | 29841 ft | 380 kts | 296° |
| 2026-05-04 17:07 | 41.08870 | -81.87735 | 29838 ft | 379 kts | 296° |
| 2026-05-04 17:08 | 41.12377 | -81.97132 | 29841 ft | 379 kts | 296° |
| 2026-05-04 17:09 | 41.14712 | -82.03398 | 29820 ft | 379 kts | 296° |
| 2026-05-04 17:09 | 41.17050 | -82.09701 | 29392 ft | 388 kts | 296° |
| 2026-05-04 17:10 | 41.19441 | -82.16150 | 28492 ft | 379 kts | 296° |
| 2026-05-04 17:10 | 41.23356 | -82.24819 | 27235 ft | 361 kts | 311° |
| 2026-05-04 17:11 | 41.25070 | -82.27106 | 26857 ft | 359 kts | 314° |
| 2026-05-04 17:11 | 41.26957 | -82.29281 | 26479 ft | 358 kts | 318° |
| 2026-05-04 17:11 | 41.30908 | -82.33263 | 25740 ft | 355 kts | 320° |
| 2026-05-04 17:12 | 41.32873 | -82.35239 | 25381 ft | 354 kts | 319° |
| 2026-05-04 17:12 | 41.36733 | -82.39279 | 24685 ft | 353 kts | 319° |
| 2026-05-04 17:13 | 41.42352 | -82.45179 | 24492 ft | 335 kts | 319° |
| 2026-05-04 17:14 | 41.47864 | -82.50984 | 24467 ft | 345 kts | 319° |
| 2026-05-04 17:14 | 41.49762 | -82.52992 | 24477 ft | 351 kts | 319° |
| 2026-05-04 17:14 | 41.53737 | -82.57219 | 23724 ft | 377 kts | 319° |
| 2026-05-04 17:15 | 41.55822 | -82.59417 | 23313 ft | 387 kts | 319° |
| 2026-05-04 17:15 | 41.60144 | -82.64000 | 22315 ft | 406 kts | 319° |
| 2026-05-04 17:16 | 41.64595 | -82.68723 | 21297 ft | 400 kts | 319° |
| 2026-05-04 17:16 | 41.70835 | -82.75353 | 19883 ft | 367 kts | 319° |
| 2026-05-04 17:17 | 41.72813 | -82.77458 | 19451 ft | 359 kts | 319° |
| 2026-05-04 17:17 | 41.78055 | -82.84164 | 18241 ft | 338 kts | 309° |
| 2026-05-04 17:18 | 41.79597 | -82.86527 | 17839 ft | 334 kts | 309° |
| 2026-05-04 17:18 | 41.82635 | -82.91146 | 17013 ft | 329 kts | 310° |
| 2026-05-04 17:19 | 41.85751 | -82.95738 | 16214 ft | 336 kts | 310° |
| 2026-05-04 17:19 | 41.88924 | -83.00389 | 15440 ft | 339 kts | 310° |
| 2026-05-04 17:20 | 41.92132 | -83.05065 | 14673 ft | 341 kts | 310° |
| 2026-05-04 17:20 | 41.94709 | -83.08844 | 14070 ft | 342 kts | 310° |
| 2026-05-04 17:20 | 41.96111 | -83.10919 | 13742 ft | 340 kts | 310° |
| 2026-05-04 17:21 | 41.99190 | -83.15498 | 12934 ft | 319 kts | 310° |
| 2026-05-04 17:21 | 42.02049 | -83.19739 | 12170 ft | 294 kts | 310° |
| 2026-05-04 17:22 | 42.03394 | -83.21738 | 11829 ft | 284 kts | 309° |
| 2026-05-04 17:22 | 42.04712 | -83.23701 | 11526 ft | 286 kts | 309° |
| 2026-05-04 17:23 | 42.10089 | -83.27449 | 10491 ft | 329 kts | 4° |
| 2026-05-04 17:23 | 42.12201 | -83.26860 | 10164 ft | 325 kts | 11° |
| 2026-05-04 17:23 | 42.16194 | -83.24172 | 9420 ft | 321 kts | 28° |
| 2026-05-04 17:24 | 42.18064 | -83.22567 | 9020 ft | 317 kts | 28° |
| 2026-05-04 17:24 | 42.23696 | -83.18342 | 7954 ft | 294 kts | 11° |
| 2026-05-04 17:25 | 42.25525 | -83.17242 | 7945 ft | 285 kts | 30° |
| 2026-05-04 17:25 | 42.28724 | -83.14224 | 7233 ft | 278 kts | 31° |
| 2026-05-04 17:26 | 42.31898 | -83.11159 | 6336 ft | 276 kts | 31° |
| 2026-05-04 17:26 | 42.36576 | -83.07235 | 5212 ft | 249 kts | 358° |
| 2026-05-04 17:27 | 42.39075 | -83.09207 | 4422 ft | 205 kts | 280° |
| 2026-05-04 17:27 | 42.38391 | -83.12546 | 4101 ft | 184 kts | 245° |
| 2026-05-04 17:28 | 42.37246 | -83.15677 | 3655 ft | 184 kts | 243° |
| 2026-05-04 17:29 | 42.35598 | -83.20192 | 3119 ft | 182 kts | 243° |
| 2026-05-04 17:29 | 42.33709 | -83.24406 | 3032 ft | 159 kts | 213° |
| 2026-05-04 17:30 | 42.31216 | -83.26534 | 2666 ft | 139 kts | 215° |
| 2026-05-04 17:31 | 42.29504 | -83.27850 | 2249 ft | 136 kts | 212° |
| 2026-05-04 17:31 | 42.27217 | -83.29535 | 1751 ft | 123 kts | 212° |
| 2026-05-04 17:32 | 42.25640 | -83.30668 | 1447 ft | 135 kts | 211° |
| 2026-05-04 17:33 | 42.23190 | -83.32488 | 932 ft | 133 kts | 208° |
| 2026-05-04 17:33 | 42.22403 | -83.33091 | 763 ft | 126 kts | 208° |
| 2026-05-04 17:34 | 42.20731 | -83.34324 | 643 ft | 37 kts | 218° |
| 2026-05-04 17:34 | 42.20565 | -83.34549 | 646 ft | 31 kts | 243° |
| 2026-05-04 17:35 | 42.20182 | -83.35082 | 647 ft | 24 kts | 263° |
| 2026-05-04 17:35 | 42.20171 | -83.35523 | 646 ft | 23 kts | 268° |
| 2026-05-04 17:35 | 42.20167 | -83.35735 | 646 ft | 22 kts | 268° |
| 2026-05-04 17:36 | 42.20162 | -83.35941 | 646 ft | 22 kts | 268° |
| 2026-05-04 17:36 | 42.20160 | -83.36143 | 646 ft | 21 kts | 274° |
| 2026-05-04 17:36 | 42.20174 | -83.36337 | 646 ft | 20 kts | 279° |
| 2026-05-04 17:36 | 42.20203 | -83.36522 | 646 ft | 20 kts | 286° |
| 2026-05-04 17:37 | 42.20242 | -83.36702 | 646 ft | 20 kts | 287° |
| 2026-05-04 17:37 | 42.20347 | -83.36760 | 645 ft | 19 kts | 24° |
| 2026-05-04 17:37 | 42.20468 | -83.36670 | 646 ft | 21 kts | 30° |
| 2026-05-04 17:37 | 42.20593 | -83.36576 | 646 ft | 20 kts | 29° |
| 2026-05-04 17:38 | 42.20718 | -83.36483 | 646 ft | 20 kts | 29° |
| 2026-05-04 17:38 | 42.20842 | -83.36389 | 645 ft | 21 kts | 29° |
| 2026-05-04 17:38 | 42.20929 | -83.36325 | 646 ft | 5 kts | 29° |
| 2026-05-04 17:38 | 42.20947 | -83.36286 | 647 ft | 5 kts | 86° |
| 2026-05-04 17:39 | 42.20934 | -83.36237 | 647 ft | 0 kts | 117° |